Time;durP1;ratioP1;P1;durP2;ratioP2;P2;SDS_P1;SDS_P2;PMS_P1;PMS_P2;Temp;Humidity;BMP_temperature;BMP_pressure;BME280_temperature;BME280_humidity;BME280_pressure;Samples;Min_cycle;Max_cycle;Signal;HPM_P1;HPM_P2
2021/11/14 00:00:41;;;;;;;17.95;5.43;;;;;;;9.61;100.00;101224.88;5019672;28;20071;-66
2021/11/14 00:03:08;;;;;;;19.77;5.38;;;;;;;9.58;100.00;101220.16;5007809;28;20068;-65
2021/11/14 00:05:34;;;;;;;18.85;5.10;;;;;;;9.55;100.00;101223.53;5005298;28;20519;-66
2021/11/14 00:08:00;;;;;;;12.77;4.53;;;;;;;9.52;100.00;101223.41;5010092;28;20037;-66
2021/11/14 00:10:26;;;;;;;14.40;4.82;;;;;;;9.62;100.00;101228.38;5009612;28;20026;-66
2021/11/14 00:12:53;;;;;;;12.35;4.50;;;;;;;9.63;100.00;101236.09;5025523;28;20033;-66
2021/11/14 00:15:19;;;;;;;15.98;5.38;;;;;;;9.63;100.00;101236.09;5025466;28;20510;-66
2021/11/14 00:17:45;;;;;;;16.52;5.65;;;;;;;9.64;100.00;101232.28;5003979;28;20042;-66
2021/11/14 00:20:11;;;;;;;15.45;5.95;;;;;;;9.68;100.00;101233.19;5004818;28;20654;-66
2021/11/14 00:22:37;;;;;;;16.10;5.15;;;;;;;9.67;100.00;101239.69;5003015;28;20577;-66
2021/11/14 00:25:06;;;;;;;17.10;5.30;;;;;;;9.69;100.00;101236.66;5020119;28;20406;-66
2021/11/14 00:27:31;;;;;;;13.02;4.93;;;;;;;9.64;100.00;101245.72;5019064;28;20026;-65
2021/11/14 00:29:57;;;;;;;19.35;5.75;;;;;;;9.65;100.00;101241.13;5007081;28;20029;-64
2021/11/14 00:32:23;;;;;;;16.23;5.85;;;;;;;9.62;100.00;101249.88;5025674;28;20499;-66
2021/11/14 00:34:50;;;;;;;15.85;5.60;;;;;;;9.66;100.00;101250.75;5007255;28;20034;-66
2021/11/14 00:37:16;;;;;;;20.45;5.15;;;;;;;9.64;100.00;101253.03;5008285;28;20468;-66
2021/11/14 00:39:42;;;;;;;15.40;4.65;;;;;;;9.61;100.00;101256.38;5005985;28;20117;-65
2021/11/14 00:42:08;;;;;;;15.77;5.70;;;;;;;9.62;100.00;101249.88;5009790;28;20042;-66
2021/11/14 00:44:33;;;;;;;14.23;4.53;;;;;;;9.60;100.00;101252.13;5006617;28;20719;-65
2021/11/14 00:46:59;;;;;;;15.63;4.90;;;;;;;9.64;100.00;101261.84;5006138;28;20038;-65
2021/11/14 00:49:25;;;;;;;17.48;4.75;;;;;;;9.64;100.00;101266.47;5007041;28;20056;-66
2021/11/14 00:51:50;;;;;;;17.50;6.07;;;;;;;9.61;100.00;101262.53;5008795;28;20037;-66
2021/11/14 00:54:16;;;;;;;16.35;5.30;;;;;;;9.63;100.00;101270.25;5009613;28;20030;-66
2021/11/14 00:56:42;;;;;;;14.07;4.95;;;;;;;9.64;100.00;101266.47;5010556;28;20092;-65
2021/11/14 00:59:08;;;;;;;18.65;5.28;;;;;;;9.63;100.00;101267.56;5009111;28;20052;-65
2021/11/14 01:01:34;;;;;;;21.42;6.22;;;;;;;9.64;100.00;101279.91;5005760;28;20108;-66
2021/11/14 01:04:01;;;;;;;16.63;4.65;;;;;;;9.64;100.00;101274.53;5001289;28;20037;-65
2021/11/14 01:06:27;;;;;;;15.13;6.07;;;;;;;9.69;100.00;101283.19;5002949;28;20116;-65
2021/11/14 01:08:53;;;;;;;17.38;4.78;;;;;;;9.73;100.00;101283.28;5000744;28;20453;-65
2021/11/14 01:11:18;;;;;;;21.50;5.28;;;;;;;9.66;100.00;101280.34;5023541;28;20088;-66
2021/11/14 01:13:45;;;;;;;18.45;6.32;;;;;;;9.65;100.00;101287.66;5010649;28;20041;-66
2021/11/14 01:16:18;;;;;;;18.95;5.65;;;;;;;9.62;100.00;101292.91;5003820;28;20040;-64
2021/11/14 01:18:44;;;;;;;15.95;5.43;;;;;;;9.62;100.00;101299.03;4990309;28;20440;-65
2021/11/14 01:21:12;;;;;;;18.60;5.93;;;;;;;9.65;100.00;101297.59;4989750;28;20164;-66
2021/11/14 01:23:40;;;;;;;14.40;4.88;;;;;;;9.67;100.00;101301.53;5006280;28;20044;-66
2021/11/14 01:26:09;;;;;;;13.18;4.35;;;;;;;9.63;100.00;101297.94;5007295;28;20527;-66
2021/11/14 01:28:35;;;;;;;14.48;5.05;;;;;;;9.55;100.00;101301.50;5010026;28;20053;-65
2021/11/14 01:31:00;;;;;;;15.10;4.93;;;;;;;9.60;100.00;101314.72;5027819;28;20110;-66
2021/11/14 01:33:28;;;;;;;16.65;5.72;;;;;;;9.65;100.00;101309.16;5013133;28;20042;-66
2021/11/14 01:35:55;;;;;;;13.18;4.20;;;;;;;9.63;100.00;101311.38;5013671;28;20037;-65
2021/11/14 01:38:21;;;;;;;23.85;6.50;;;;;;;9.60;100.00;101308.59;5010178;28;20069;-66
2021/11/14 01:40:50;;;;;;;18.73;5.63;;;;;;;9.55;100.00;101317.63;4999629;28;20416;-65
2021/11/14 01:43:22;;;;;;;21.38;6.05;;;;;;;9.63;100.00;101311.38;5002565;28;20119;-65
2021/11/14 01:45:51;;;;;;;19.20;5.43;;;;;;;9.64;100.00;101320.25;5013986;28;20030;-66
2021/11/14 01:48:17;;;;;;;14.73;5.47;;;;;;;9.60;100.00;101322.03;5007823;28;20038;-65
2021/11/14 01:50:43;;;;;;;19.40;5.82;;;;;;;9.60;100.00;101314.72;5003344;28;20033;-65
2021/11/14 01:53:11;;;;;;;13.70;4.90;;;;;;;9.61;100.00;101318.22;5012683;28;20026;-66
2021/11/14 01:55:43;;;;;;;15.68;5.40;;;;;;;9.67;100.00;101327.66;5011583;28;20662;-66
2021/11/14 01:58:11;;;;;;;21.20;5.50;;;;;;;9.67;100.00;101333.03;5013522;28;20065;-65
2021/11/14 02:00:51;;;;;;;18.67;5.78;;;;;;;9.60;100.00;101332.78;5011793;28;20026;-66
2021/11/14 02:03:18;;;;;;;17.13;6.20;;;;;;;9.62;100.00;101331.31;5013785;28;20491;-65
2021/11/14 02:05:44;;;;;;;22.00;5.80;;;;;;;9.61;100.00;101326.28;5009515;28;20398;-65
2021/11/14 02:08:11;;;;;;;14.50;4.60;;;;;;;9.60;100.00;101332.78;5007751;28;20041;-66
2021/11/14 02:10:37;;;;;;;22.90;4.70;;;;;;;9.61;100.00;101339.72;5009086;28;20385;-65
2021/11/14 02:13:04;;;;;;;21.48;5.97;;;;;;;9.62;100.00;101335.94;5003468;28;20092;-65
2021/11/14 02:15:30;;;;;;;18.13;5.50;;;;;;;9.65;100.00;101336.06;5013043;28;20046;-66
2021/11/14 02:17:56;;;;;;;16.60;5.50;;;;;;;9.66;100.00;101336.81;5012494;28;20041;-66
2021/11/14 02:20:23;;;;;;;16.77;5.57;;;;;;;9.65;100.00;101340.63;5007714;28;20148;-66
2021/11/14 02:22:50;;;;;;;16.00;5.15;;;;;;;9.69;100.00;101338.84;5007127;28;20048;-65
2021/11/14 02:25:18;;;;;;;18.20;5.20;;;;;;;9.69;100.00;101347.72;5011929;28;20034;-66
2021/11/14 02:27:46;;;;;;;16.48;6.03;;;;;;;9.64;100.00;101345.22;5012995;28;20488;-65
2021/11/14 02:30:14;;;;;;;16.10;4.57;;;;;;;9.66;100.00;101358.31;5010949;28;20030;-66
2021/11/14 02:32:40;;;;;;;17.23;5.47;;;;;;;9.68;100.00;101356.88;5013068;28;20395;-65
2021/11/14 02:35:07;;;;;;;15.25;4.70;;;;;;;9.66;100.00;101356.44;5006008;28;20030;-66
2021/11/14 02:37:33;;;;;;;15.70;4.45;;;;;;;9.68;100.00;101359.56;5006635;28;20030;-66
2021/11/14 02:39:58;;;;;;;17.08;5.57;;;;;;;9.67;100.00;101376.84;5026619;28;20396;-65
2021/11/14 02:42:24;;;;;;;18.63;5.22;;;;;;;9.65;100.00;101372.91;5027948;28;20040;-65
2021/11/14 02:44:49;;;;;;;19.25;5.72;;;;;;;9.65;100.00;101370.22;5011343;28;20572;-66
2021/11/14 02:47:15;;;;;;;14.68;5.05;;;;;;;9.64;100.00;101379.41;5008124;28;20042;-66
2021/11/14 02:49:41;;;;;;;19.88;5.88;;;;;;;9.67;100.00;101378.75;5003232;28;20025;-65
2021/11/14 02:52:06;;;;;;;22.45;6.20;;;;;;;9.69;100.00;101373.81;5005829;28;20046;-65
2021/11/14 02:54:32;;;;;;;16.17;5.93;;;;;;;9.70;100.00;101381.53;4995418;28;20042;-66
2021/11/14 02:56:58;;;;;;;20.13;5.97;;;;;;;9.66;100.00;101386.00;5007200;28;20042;-66
2021/11/14 02:59:24;;;;;;;15.70;4.80;;;;;;;9.70;100.00;101386.13;5010245;28;20061;-65
2021/11/14 03:01:53;;;;;;;16.50;6.03;;;;;;;9.66;100.00;101387.91;4999450;28;20064;-66
2021/11/14 03:04:22;;;;;;;15.13;5.25;;;;;;;9.67;100.00;101382.22;5010190;28;20076;-66
2021/11/14 03:06:50;;;;;;;15.80;5.30;;;;;;;9.59;100.00;101374.22;5002067;28;20381;-66
2021/11/14 03:09:16;;;;;;;21.33;6.38;;;;;;;9.60;100.00;101387.31;5001446;28;20113;-65
2021/11/14 03:11:41;;;;;;;23.88;7.60;;;;;;;9.62;100.00;101384.34;5002329;28;20113;-66
2021/11/14 03:14:08;;;;;;;18.77;5.72;;;;;;;9.61;100.00;101388.91;5000790;28;20112;-66
2021/11/14 03:16:38;;;;;;;12.27;5.07;;;;;;;9.71;100.00;101396.59;5000059;28;20588;-65
2021/11/14 03:19:06;;;;;;;20.90;5.25;;;;;;;9.69;100.00;101398.00;5007909;28;20505;-66
2021/11/14 03:21:32;;;;;;;18.08;5.70;;;;;;;9.66;100.00;101390.59;5019332;28;20034;-66
2021/11/14 03:23:58;;;;;;;22.73;6.45;;;;;;;9.62;100.00;101395.09;5004690;28;20083;-65
2021/11/14 03:26:26;;;;;;;18.77;5.95;;;;;;;9.58;100.00;101397.63;5027093;28;20034;-66
2021/11/14 03:28:52;;;;;;;13.35;4.57;;;;;;;9.50;100.00;101395.81;5011433;28;20049;-66
2021/11/14 03:31:18;;;;;;;14.27;5.07;;;;;;;9.57;100.00;101393.38;5022443;28;20503;-65
2021/11/14 03:33:44;;;;;;;25.58;5.40;;;;;;;9.64;100.00;101409.00;5002579;28;20092;-65
2021/11/14 03:36:15;;;;;;;25.42;5.93;;;;;;;9.51;100.00;101393.91;4998760;28;20041;-65
2021/11/14 03:38:44;;;;;;;16.90;5.20;;;;;;;9.51;100.00;101408.13;4998039;28;20034;-65
2021/11/14 03:41:15;;;;;;;14.75;4.68;;;;;;;9.57;100.00;101408.72;5020696;28;20039;-66
2021/11/14 03:43:42;;;;;;;21.77;5.53;;;;;;;9.57;100.00;101408.72;4997145;28;20120;-65
2021/11/14 03:46:08;;;;;;;20.42;5.72;;;;;;;9.61;100.00;101421.19;5011623;28;20392;-66
2021/11/14 03:48:35;;;;;;;23.40;5.22;;;;;;;9.67;100.00;101413.69;5010335;28;20112;-64
2021/11/14 03:51:02;;;;;;;21.52;5.28;;;;;;;9.66;100.00;101417.47;5009647;28;20033;-66
2021/11/14 03:53:27;;;;;;;23.58;5.53;;;;;;;9.66;100.00;101420.97;5011098;28;20034;-66
2021/11/14 03:55:53;;;;;;;16.00;5.43;;;;;;;9.67;100.00;101424.44;5000279;28;20022;-66
2021/11/14 03:58:19;;;;;;;13.05;4.25;;;;;;;9.66;100.00;101420.19;5025326;28;20080;-65
2021/11/14 04:00:49;;;;;;;18.85;5.57;;;;;;;9.67;100.00;101425.25;5009308;28;20026;-65
2021/11/14 04:03:15;;;;;;;19.30;5.93;;;;;;;9.69;100.00;101422.22;5010246;28;20045;-65
2021/11/14 04:05:43;;;;;;;14.75;4.68;;;;;;;9.66;100.00;101428.25;5008457;28;20029;-65
2021/11/14 04:08:13;;;;;;;16.10;4.63;;;;;;;9.66;100.00;101436.31;4998266;28;20026;-65
2021/11/14 04:10:40;;;;;;;16.00;4.43;;;;;;;9.68;100.00;101437.56;5003508;28;20189;-65
2021/11/14 04:13:06;;;;;;;16.52;4.88;;;;;;;9.71;100.00;101441.50;5002175;28;20080;-66
2021/11/14 04:15:32;;;;;;;18.17;4.95;;;;;;;9.67;100.00;101444.06;5026287;28;20034;-65
2021/11/14 04:17:57;;;;;;;15.18;4.75;;;;;;;9.69;100.00;101443.72;5010086;28;20116;-66
2021/11/14 04:20:29;;;;;;;18.08;5.82;;;;;;;9.67;100.00;101452.13;5008777;28;20464;-65
2021/11/14 04:22:55;;;;;;;16.58;5.32;;;;;;;9.66;100.00;101453.25;5026071;28;20038;-66
2021/11/14 04:25:22;;;;;;;16.25;5.20;;;;;;;9.66;100.00;101455.94;5010220;28;20068;-65
2021/11/14 04:27:47;;;;;;;20.40;5.28;;;;;;;9.68;100.00;101455.59;5007266;28;20117;-65
2021/11/14 04:30:14;;;;;;;22.80;4.75;;;;;;;9.64;100.00;101460.09;5008405;28;20120;-65
2021/11/14 04:32:40;;;;;;;20.67;5.15;;;;;;;9.63;100.00;101456.59;5025252;28;20042;-65
2021/11/14 04:35:06;;;;;;;25.10;5.90;;;;;;;9.65;100.00;101459.75;5009422;28;20080;-65
2021/11/14 04:37:32;;;;;;;13.57;4.72;;;;;;;9.69;100.00;101459.88;5022939;28;20377;-66
2021/11/14 04:39:58;;;;;;;21.52;5.35;;;;;;;9.66;100.00;101466.69;5002479;28;20040;-65
2021/11/14 04:42:23;;;;;;;16.83;4.85;;;;;;;9.65;100.00;101464.34;5002881;28;20061;-65
2021/11/14 04:44:49;;;;;;;17.45;4.90;;;;;;;9.71;100.00;101471.88;5010177;28;20200;-65
2021/11/14 04:47:15;;;;;;;21.23;5.70;;;;;;;9.66;100.00;101474.75;5009861;28;20077;-66
2021/11/14 04:49:41;;;;;;;17.77;4.78;;;;;;;9.71;100.00;101471.09;5009665;28;20759;-65
2021/11/14 04:52:08;;;;;;;19.75;5.07;;;;;;;9.64;100.00;101476.22;5005241;28;20571;-65
2021/11/14 04:54:36;;;;;;;17.52;4.72;;;;;;;9.60;100.00;101478.75;4999204;28;20042;-66
2021/11/14 04:57:02;;;;;;;21.25;4.82;;;;;;;9.67;100.00;101480.94;5000463;28;20089;-64
2021/11/14 04:59:28;;;;;;;19.98;4.40;;;;;;;9.70;100.00;101482.94;5010064;28;20046;-65
2021/11/14 05:01:53;;;;;;;16.63;4.45;;;;;;;9.67;100.00;101480.94;5009417;28;20038;-65
2021/11/14 05:04:19;;;;;;;14.57;4.35;;;;;;;9.70;100.00;101489.13;5011781;28;20439;-65
2021/11/14 05:06:45;;;;;;;19.65;5.47;;;;;;;9.70;100.00;101488.31;5010875;28;20030;-66
2021/11/14 05:09:10;;;;;;;20.80;5.53;;;;;;;9.70;100.00;101491.81;5016594;28;20038;-66
2021/11/14 05:11:36;;;;;;;14.57;4.88;;;;;;;9.72;100.00;101492.28;5005661;28;20112;-66
2021/11/14 05:14:03;;;;;;;16.55;4.85;;;;;;;9.74;100.00;101494.63;5002107;28;20122;-66
2021/11/14 05:16:29;;;;;;;12.32;3.97;;;;;;;9.70;100.00;101493.72;5009001;28;20037;-65
2021/11/14 05:18:54;;;;;;;14.48;4.13;;;;;;;9.77;100.00;101500.16;5014096;28;20046;-66
2021/11/14 05:21:20;;;;;;;16.02;4.63;;;;;;;9.77;100.00;101507.44;5012240;28;20563;-65
2021/11/14 05:23:46;;;;;;;18.90;4.78;;;;;;;9.72;100.00;101504.91;5013932;28;20117;-66
2021/11/14 05:26:11;;;;;;;17.48;5.22;;;;;;;9.75;100.00;101502.38;5012779;28;20034;-66
2021/11/14 05:28:38;;;;;;;22.23;4.35;;;;;;;9.73;100.00;101501.13;5010849;28;20037;-66
2021/11/14 05:31:05;;;;;;;14.13;4.07;;;;;;;9.77;100.00;101507.44;5006476;28;20088;-66
2021/11/14 05:33:30;;;;;;;11.52;4.00;;;;;;;9.75;100.00;101506.97;5006629;28;20037;-65
2021/11/14 05:35:56;;;;;;;15.48;3.85;;;;;;;9.73;100.00;101514.59;5012798;28;20022;-66
2021/11/14 05:38:21;;;;;;;19.73;4.75;;;;;;;9.69;100.00;101513.66;5013521;28;20041;-65
2021/11/14 05:40:47;;;;;;;12.32;4.20;;;;;;;9.74;100.00;101519.63;5026452;28;20042;-65
2021/11/14 05:43:13;;;;;;;17.25;4.55;;;;;;;9.74;100.00;101510.75;5013396;28;20096;-65
2021/11/14 05:45:39;;;;;;;15.88;4.60;;;;;;;9.72;100.00;101521.06;5013754;28;20026;-65
2021/11/14 05:48:05;;;;;;;13.60;4.25;;;;;;;9.71;100.00;101522.19;5023123;28;20030;-65
2021/11/14 05:50:30;;;;;;;21.08;5.20;;;;;;;9.76;100.00;101524.66;5007977;28;20049;-65
2021/11/14 05:52:56;;;;;;;14.55;4.50;;;;;;;9.72;100.00;101523.75;5013589;28;20121;-66
2021/11/14 05:55:22;;;;;;;17.95;5.05;;;;;;;9.69;100.00;101541.34;5011001;28;20018;-65
2021/11/14 05:58:04;;;;;;;18.13;4.55;;;;;;;9.72;100.00;101539.88;5008300;28;20899;-65
2021/11/14 06:00:55;;;;;;;17.52;5.38;;;;;;;9.75;100.00;101536.56;5003373;28;20038;-64
2021/11/14 06:05:46;;;;;;;14.75;4.00;;;;;;;9.72;100.00;101550.63;5010884;28;20038;-65
2021/11/14 06:08:12;;;;;;;13.80;4.40;;;;;;;9.76;100.00;101556.94;5009494;28;20029;-65
2021/11/14 06:10:37;;;;;;;17.05;4.47;;;;;;;9.73;100.00;101558.41;5009725;28;20034;-66
2021/11/14 06:13:04;;;;;;;13.07;4.78;;;;;;;9.73;100.00;101557.63;5008755;28;20141;-66
2021/11/14 06:15:31;;;;;;;18.75;4.65;;;;;;;9.69;100.00;101567.44;5010942;28;20030;-65
2021/11/14 06:17:57;;;;;;;16.77;4.65;;;;;;;9.71;100.00;101560.63;5011794;28;20045;-64
2021/11/14 06:20:23;;;;;;;19.73;4.75;;;;;;;9.71;100.00;101565.22;5009340;28;20025;-64
2021/11/14 06:22:51;;;;;;;20.60;4.55;;;;;;;9.75;100.00;101574.22;5008057;28;20121;-65
2021/11/14 06:25:19;;;;;;;14.10;4.18;;;;;;;9.72;100.00;101581.03;5008603;28;20056;-66
2021/11/14 06:27:45;;;;;;;18.40;5.75;;;;;;;9.74;100.00;101581.50;5012831;28;20057;-65
2021/11/14 06:30:13;;;;;;;17.85;4.70;;;;;;;9.73;100.00;101590.69;5026790;28;22118;-65
2021/11/14 06:32:39;;;;;;;16.17;5.32;;;;;;;9.74;100.00;101594.13;5012058;28;20038;-65
2021/11/14 06:35:05;;;;;;;14.85;4.10;;;;;;;9.77;100.00;101597.00;5012762;28;20507;-65
2021/11/14 06:37:31;;;;;;;14.35;4.60;;;;;;;9.73;100.00;101603.34;5011934;28;20042;-66
2021/11/14 06:39:56;;;;;;;17.35;4.25;;;;;;;9.74;100.00;101612.97;5005547;28;20026;-65
2021/11/14 06:42:22;;;;;;;23.30;5.00;;;;;;;9.77;100.00;101625.78;5003340;28;20065;-65
2021/11/14 06:44:48;;;;;;;24.20;4.88;;;;;;;9.75;100.00;101618.03;5026333;28;20034;-65
2021/11/14 06:47:14;;;;;;;16.92;5.60;;;;;;;9.83;100.00;101632.56;4991905;28;20070;-65
2021/11/14 06:49:40;;;;;;;20.02;5.32;;;;;;;9.84;100.00;101624.16;5009759;28;20026;-66
2021/11/14 06:52:06;;;;;;;16.35;5.20;;;;;;;9.79;100.00;101637.00;4993091;28;20042;-66
2021/11/14 06:54:32;;;;;;;19.83;4.63;;;;;;;9.75;100.00;101642.25;5012366;28;20029;-66
2021/11/14 06:56:57;;;;;;;26.77;5.13;;;;;;;9.82;100.00;101637.13;5011355;28;20046;-64
2021/11/14 06:59:23;;;;;;;25.77;4.72;;;;;;;9.79;100.00;101648.53;5011929;28;20034;-66
2021/11/14 07:01:49;;;;;;;16.55;5.00;;;;;;;9.77;100.00;101658.84;4998558;28;20033;-65
2021/11/14 07:04:17;;;;;;;18.60;5.47;;;;;;;9.81;100.00;101659.75;4996633;28;20516;-66
2021/11/14 07:06:43;;;;;;;24.13;5.63;;;;;;;9.79;100.00;101661.22;5010332;28;20042;-66
2021/11/14 07:09:09;;;;;;;23.23;5.15;;;;;;;9.83;100.00;101667.53;5015339;28;20432;-65
2021/11/14 07:11:35;;;;;;;16.50;5.82;;;;;;;9.83;100.00;101675.59;5022430;28;20116;-66
2021/11/14 07:14:05;;;;;;;15.65;5.75;;;;;;;9.79;100.00;101674.66;5008002;28;20034;-64
2021/11/14 07:16:31;;;;;;;21.73;4.90;;;;;;;9.79;100.00;101686.19;5006842;28;20038;-66
2021/11/14 07:18:57;;;;;;;19.67;5.95;;;;;;;9.87;100.00;101689.97;5009876;28;20034;-66
2021/11/14 07:21:23;;;;;;;16.73;4.95;;;;;;;9.84;100.00;101687.91;5008872;28;20057;-65
2021/11/14 07:23:49;;;;;;;30.70;5.55;;;;;;;9.86;100.00;101699.94;5008264;28;20038;-66
2021/11/14 07:26:15;;;;;;;19.20;5.45;;;;;;;9.82;100.00;101703.59;5009429;28;20056;-65
2021/11/14 07:28:41;;;;;;;19.60;5.60;;;;;;;9.81;100.00;101696.66;5007781;28;20030;-66
2021/11/14 07:31:06;;;;;;;19.23;5.68;;;;;;;9.80;100.00;101708.50;5003863;28;20034;-65
2021/11/14 07:33:32;;;;;;;21.42;5.68;;;;;;;9.82;100.00;101701.69;5008742;28;20026;-66
2021/11/14 07:35:58;;;;;;;24.45;5.22;;;;;;;9.77;100.00;101709.16;5010545;28;20427;-66
2021/11/14 07:38:24;;;;;;;20.65;5.75;;;;;;;9.85;100.00;101711.03;5010578;28;20141;-64
2021/11/14 07:40:49;;;;;;;20.45;5.25;;;;;;;9.79;100.00;101721.16;4996591;28;20042;-65
2021/11/14 07:43:15;;;;;;;24.83;5.88;;;;;;;9.82;100.00;101725.13;5010774;28;20034;-65
2021/11/14 07:45:41;;;;;;;26.55;5.50;;;;;;;9.86;100.00;101718.78;5011247;28;20036;-64
2021/11/14 07:48:07;;;;;;;20.35;4.82;;;;;;;9.88;100.00;101734.59;5009214;28;20545;-64
2021/11/14 07:50:34;;;;;;;22.48;6.05;;;;;;;9.90;100.00;101735.06;5004588;28;20037;-65
2021/11/14 07:53:02;;;;;;;31.92;6.03;;;;;;;9.87;100.00;101733.78;5005288;28;20037;-65
2021/11/14 07:55:28;;;;;;;22.02;5.88;;;;;;;9.84;100.00;101739.84;5011624;28;20045;-66
2021/11/14 07:57:53;;;;;;;23.83;5.97;;;;;;;9.85;100.00;101740.63;5010955;28;20073;-64
2021/11/14 08:00:22;;;;;;;17.38;6.70;;;;;;;9.83;100.00;101742.84;5002241;28;20066;-65
2021/11/14 08:02:48;;;;;;;22.67;6.22;;;;;;;9.81;100.00;101748.53;5006914;28;20100;-64
2021/11/14 08:05:17;;;;;;;27.25;6.50;;;;;;;9.84;100.00;101749.78;5011412;28;20157;-64
2021/11/14 08:07:49;;;;;;;26.63;7.03;;;;;;;9.84;100.00;101758.66;5021602;28;20041;-65
2021/11/14 08:10:18;;;;;;;24.20;6.15;;;;;;;9.86;100.00;101756.44;5000221;28;20033;-65
2021/11/14 08:12:44;;;;;;;23.70;7.38;;;;;;;9.91;100.00;101758.19;5003701;28;20022;-65
2021/11/14 08:15:10;;;;;;;17.83;6.47;;;;;;;9.92;100.00;101759.75;5024192;23;20064;-65
2021/11/14 08:17:36;;;;;;;20.88;6.18;;;;;;;9.91;100.00;101763.56;5024854;28;20402;-65
2021/11/14 08:20:03;;;;;;;28.90;6.68;;;;;;;9.90;100.00;101768.13;5031688;28;20059;-66
2021/11/14 08:22:29;;;;;;;20.45;7.07;;;;;;;9.91;100.00;101771.63;5042886;28;20028;-65
2021/11/14 08:24:56;;;;;;;24.60;6.35;;;;;;;9.90;100.00;101778.91;5029273;28;20025;-65
2021/11/14 08:27:24;;;;;;;30.77;6.13;;;;;;;9.88;100.00;101783.00;5067214;28;20551;-65
2021/11/14 08:29:50;;;;;;;22.70;6.47;;;;;;;9.93;100.00;101782.81;5067850;28;20032;-65
2021/11/14 08:32:17;;;;;;;19.52;6.00;;;;;;;9.96;100.00;101787.59;5069233;28;20024;-65
2021/11/14 08:34:43;;;;;;;24.02;6.53;;;;;;;9.94;100.00;101793.28;5065623;28;20502;-65
2021/11/14 08:37:09;;;;;;;26.08;6.60;;;;;;;9.91;100.00;101791.22;5047215;28;20115;-65
2021/11/14 08:39:35;;;;;;;18.88;5.75;;;;;;;9.90;100.00;101783.47;5067751;28;20116;-66
2021/11/14 08:42:01;;;;;;;20.65;6.40;;;;;;;9.87;100.00;101787.59;5064305;28;20039;-65
2021/11/14 08:44:28;;;;;;;19.25;5.95;;;;;;;9.86;100.00;101804.06;5069803;28;20028;-65
2021/11/14 08:46:54;;;;;;;22.42;6.45;;;;;;;9.94;100.00;101795.97;5070745;28;20086;-66
2021/11/14 08:49:21;;;;;;;20.35;6.25;;;;;;;9.89;100.00;101806.91;5069420;28;20445;-65
2021/11/14 08:51:46;;;;;;;19.73;6.30;;;;;;;9.92;100.00;101802.78;5056422;28;20028;-66
2021/11/14 08:54:12;;;;;;;29.33;6.28;;;;;;;9.95;100.00;101807.50;5049663;28;20036;-66
2021/11/14 08:56:39;;;;;;;23.63;6.22;;;;;;;9.99;100.00;101813.84;5033396;28;20021;-65
2021/11/14 08:59:05;;;;;;;22.23;6.85;;;;;;;9.95;100.00;101807.50;5067628;28;20036;-65
2021/11/14 09:01:33;;;;;;;24.23;6.75;;;;;;;9.98;100.00;101812.25;5053449;28;20082;-66
2021/11/14 09:03:58;;;;;;;24.27;6.07;;;;;;;9.97;100.00;101813.38;5058035;28;20486;-65
2021/11/14 09:06:23;;;;;;;26.60;6.30;;;;;;;9.94;100.00;101817.50;5050725;28;20043;-66
2021/11/14 09:08:50;;;;;;;16.58;5.30;;;;;;;9.99;100.00;101836.16;5069301;28;20041;-66
2021/11/14 09:11:16;;;;;;;22.58;5.75;;;;;;;10.02;100.00;101824.78;5045424;28;20032;-65
2021/11/14 09:13:42;;;;;;;25.20;6.32;;;;;;;9.97;100.00;101827.63;5066834;28;20643;-65
2021/11/14 09:16:08;;;;;;;23.67;6.43;;;;;;;10.00;100.00;101828.88;5047306;28;20734;-65
2021/11/14 09:18:33;;;;;;;27.13;6.65;;;;;;;10.13;100.00;101840.56;5057471;28;20036;-65
2021/11/14 09:20:59;;;;;;;19.30;6.25;;;;;;;10.04;100.00;101840.59;5050893;28;20043;-65
2021/11/14 09:23:27;;;;;;;24.65;6.63;;;;;;;9.99;100.00;101843.44;5068806;28;20129;-66
2021/11/14 09:25:53;;;;;;;18.77;4.85;;;;;;;9.97;100.00;101859.09;5068744;28;20534;-66
2021/11/14 09:28:18;;;;;;;20.98;5.88;;;;;;;9.96;100.00;101854.84;5068071;28;20051;-65
2021/11/14 09:30:50;;;;;;;20.95;5.95;;;;;;;9.99;100.00;101852.31;5066966;28;20036;-66
2021/11/14 09:33:21;;;;;;;17.60;5.50;;;;;;;10.04;100.00;101857.50;5063863;28;20113;-65
2021/11/14 09:35:47;;;;;;;20.48;5.10;;;;;;;10.02;100.00;101861.66;5031816;28;20025;-65
2021/11/14 09:38:14;;;;;;;18.42;4.85;;;;;;;10.03;100.00;101866.69;5068589;28;20028;-65
2021/11/14 09:40:40;;;;;;;16.92;5.38;;;;;;;10.04;100.00;101870.19;5066598;28;20025;-65
2021/11/14 09:43:07;;;;;;;20.63;5.38;;;;;;;10.12;100.00;101869.41;5068368;28;20123;-66
2021/11/14 09:45:34;;;;;;;21.00;5.22;;;;;;;10.16;100.00;101877.63;5068960;28;20029;-66
2021/11/14 09:47:59;;;;;;;19.63;4.75;;;;;;;10.13;100.00;101878.25;5068528;28;20037;-65
2021/11/14 09:50:27;;;;;;;17.30;5.25;;;;;;;10.13;100.00;101873.66;5059177;28;20093;-66
2021/11/14 09:52:53;;;;;;;18.25;5.22;;;;;;;10.01;100.00;101876.19;5067488;28;20125;-65
2021/11/14 09:55:18;;;;;;;22.38;5.50;;;;;;;10.10;100.00;101882.41;5043390;28;20033;-66
2021/11/14 09:57:45;;;;;;;19.52;5.22;;;;;;;10.16;100.00;101880.31;5067641;28;20509;-66
2021/11/14 10:00:13;;;;;;;23.58;6.15;;;;;;;10.24;100.00;101884.88;5045467;28;20013;-66
2021/11/14 10:02:40;;;;;;;16.45;5.40;;;;;;;10.23;100.00;101894.06;5049315;28;20032;-65
2021/11/14 10:05:08;;;;;;;23.70;6.55;;;;;;;10.25;100.00;101903.41;5060685;28;20043;-67
2021/11/14 10:07:34;;;;;;;24.52;6.90;;;;;;;10.25;100.00;101900.72;5061649;28;20036;-67
2021/11/14 10:10:00;;;;;;;18.27;6.15;;;;;;;10.25;100.00;101892.63;5066369;28;20044;-67
2021/11/14 10:12:32;;;;;;;18.00;6.68;;;;;;;10.30;100.00;101905.91;5065647;28;20041;-67
2021/11/14 10:15:20;;;;;;;19.38;6.20;;;;;;;10.28;100.00;101900.06;5065530;28;20037;-66
2021/11/14 10:17:59;;;;;;;25.63;6.53;;;;;;;10.29;100.00;101895.47;5067557;28;20032;-66
2021/11/14 10:20:26;;;;;;;26.42;6.93;;;;;;;10.31;100.00;101895.94;5056920;28;20040;-66
2021/11/14 10:23:01;;;;;;;19.42;6.53;;;;;;;10.37;100.00;101900.03;5069550;28;20037;-66
2021/11/14 10:25:28;;;;;;;26.48;6.70;;;;;;;10.40;100.00;101894.00;5067181;28;20024;-66
2021/11/14 10:27:58;;;;;;;26.95;7.22;;;;;;;10.44;100.00;101901.13;5065850;28;20048;-66
2021/11/14 10:30:27;;;;;;;36.20;8.48;;;;;;;10.40;100.00;101897.50;5070545;28;20032;-66
2021/11/14 10:33:03;;;;;;;36.38;7.78;;;;;;;10.47;100.00;101900.47;5067012;28;20572;-66
2021/11/14 10:35:28;;;;;;;29.23;7.63;;;;;;;10.49;100.00;101903.63;5063737;28;20039;-65
2021/11/14 10:37:57;;;;;;;28.92;9.15;;;;;;;10.50;100.00;101905.22;5066376;28;20032;-66
2021/11/14 10:40:26;;;;;;;29.55;8.45;;;;;;;10.53;100.00;101904.56;5070850;28;20098;-66
2021/11/14 10:42:58;;;;;;;24.52;7.72;;;;;;;10.54;100.00;101906.16;5070784;28;20082;-65
2021/11/14 10:45:25;;;;;;;29.55;6.88;;;;;;;10.56;100.00;101917.41;5071678;28;20449;-66
2021/11/14 10:48:21;;;;;;;22.20;6.82;;;;;;;10.52;100.00;101900.31;5053459;28;20024;-66
2021/11/14 10:50:59;;;;;;;35.42;8.15;;;;;;;10.55;100.00;101912.34;5063944;28;20446;-66
2021/11/14 10:53:27;;;;;;;24.63;7.75;;;;;;;10.57;100.00;101918.16;5038023;28;20102;-67
2021/11/14 10:55:59;;;;;;;30.73;7.65;;;;;;;10.65;100.00;101917.34;5071384;28;20055;-66
2021/11/14 10:58:26;;;;;;;26.88;8.50;;;;;;;10.59;100.00;101910.56;5071037;28;20033;-66
2021/11/14 11:00:59;;;;;;;26.65;7.28;;;;;;;10.59;100.00;101921.34;5065423;28;20042;-66
2021/11/14 11:03:43;;;;;;;22.00;6.97;;;;;;;10.62;100.00;101916.13;5064547;28;20078;-66
2021/11/14 11:06:16;;;;;;;26.20;7.65;;;;;;;10.61;100.00;101913.72;5071221;28;20036;-66
2021/11/14 11:08:44;;;;;;;27.73;7.53;;;;;;;10.58;100.00;101923.25;5071793;28;20611;-66
2021/11/14 11:11:10;;;;;;;27.70;7.78;;;;;;;10.63;100.00;101919.56;5069418;28;20051;-65
2021/11/14 11:13:40;;;;;;;22.33;6.55;;;;;;;10.60;100.00;101926.41;5063549;28;20028;-66
2021/11/14 11:16:14;;;;;;;25.10;6.65;;;;;;;10.62;100.00;101928.78;5070369;28;20033;-66
2021/11/14 11:18:43;;;;;;;22.38;7.22;;;;;;;10.57;100.00;101927.03;5062344;28;20103;-66